Time;durP1;ratioP1;P1;durP2;ratioP2;P2;SDS_P1;SDS_P2;PMS_P1;PMS_P2;Temp;Humidity;BMP_temperature;BMP_pressure;BME280_temperature;BME280_humidity;BME280_pressure;Samples;Min_cycle;Max_cycle;Signal;HPM_P1;HPM_P2
2023/03/24 00:01:58;;;;;;;1.13;0.20;;;;;;;6.62;92.35;101348.53;4968374;28;20090;-85
2023/03/24 00:04:26;;;;;;;2.65;0.10;;;;;;;6.53;91.95;101353.19;4958564;28;20484;-82
2023/03/24 00:07:00;;;;;;;0.20;0.15;;;;;;;6.49;93.17;101357.25;4963390;28;20055;-83
2023/03/24 00:09:29;;;;;;;4.22;0.52;;;;;;;6.52;95.06;101356.53;4962350;28;20513;-80
2023/03/24 00:12:00;;;;;;;1.95;0.45;;;;;;;6.54;94.08;101354.06;4969054;28;20047;-77
2023/03/24 00:14:31;;;;;;;0.73;0.22;;;;;;;6.75;94.77;101355.22;4966464;28;20042;-78
2023/03/24 00:17:00;;;;;;;4.30;0.55;;;;;;;6.86;94.46;101359.25;4963410;28;20081;-87
2023/03/24 00:19:28;;;;;;;1.17;0.32;;;;;;;6.93;95.09;101363.06;4961654;28;20042;-81
2023/03/24 00:21:59;;;;;;;1.38;0.50;;;;;;;7.07;95.29;101343.19;4967862;28;20054;-81
2023/03/24 00:24:28;;;;;;;0.95;0.57;;;;;;;7.31;94.58;101354.78;4970518;28;20078;-78
2023/03/24 00:26:57;;;;;;;1.65;0.55;;;;;;;7.30;91.49;101358.16;4959884;28;20560;-79
2023/03/24 00:29:26;;;;;;;1.45;0.32;;;;;;;7.29;93.19;101361.53;4958343;28;20058;-79
2023/03/24 00:31:56;;;;;;;1.35;0.70;;;;;;;7.26;91.54;101361.41;4966213;28;20115;-77
2023/03/24 00:34:25;;;;;;;0.90;0.50;;;;;;;7.33;88.83;101362.59;4971022;28;20129;-82
2023/03/24 00:36:54;;;;;;;1.55;0.30;;;;;;;7.42;87.73;101359.59;4963917;28;20050;-78
2023/03/24 00:39:22;;;;;;;0.52;0.20;;;;;;;7.55;87.82;101350.00;4963626;28;20055;-79
2023/03/24 00:41:51;;;;;;;0.20;0.20;;;;;;;7.75;86.23;101350.16;4961132;28;20097;-79
2023/03/24 00:44:20;;;;;;;2.13;0.70;;;;;;;7.86;85.88;101355.84;4962037;28;20098;-80
2023/03/24 00:46:54;;;;;;;1.27;0.40;;;;;;;7.84;85.21;101362.63;4969612;28;20382;-81
2023/03/24 00:49:40;;;;;;;1.58;0.55;;;;;;;7.81;84.74;101354.72;4965877;28;20059;-87
2023/03/24 00:52:10;;;;;;;3.90;0.50;;;;;;;7.70;84.34;101334.47;4960028;28;20501;-79
2023/03/24 00:54:40;;;;;;;6.97;1.02;;;;;;;7.82;85.67;101351.34;4964131;28;20118;-84
2023/03/24 00:57:11;;;;;;;2.67;0.50;;;;;;;7.76;84.74;101337.38;4963706;28;20047;-82
2023/03/24 00:59:47;;;;;;;2.20;0.85;;;;;;;7.78;83.86;101342.56;4962007;28;20051;-84
2023/03/24 01:02:20;;;;;;;2.85;0.77;;;;;;;7.73;84.41;101342.34;4966922;28;20583;-82
2023/03/24 01:04:55;;;;;;;0.77;0.63;;;;;;;7.66;84.55;101342.84;4961858;28;20051;-78
2023/03/24 01:07:30;;;;;;;3.42;0.77;;;;;;;7.60;82.48;101342.53;4967774;28;20047;-86
2023/03/24 01:10:01;;;;;;;0.75;0.40;;;;;;;7.65;85.40;101350.47;4966390;28;20066;-84
2023/03/24 01:12:32;;;;;;;0.75;0.30;;;;;;;7.61;83.73;101352.03;4963015;28;20109;-79
2023/03/24 01:15:04;;;;;;;4.40;0.80;;;;;;;7.56;83.69;101353.50;4963692;28;20054;-82
2023/03/24 01:17:35;;;;;;;1.80;0.57;;;;;;;7.41;83.99;101343.28;4962099;28;20662;-83
2023/03/24 01:20:10;;;;;;;0.40;0.30;;;;;;;7.36;83.93;101356.72;4965140;28;20058;-81
2023/03/24 01:22:40;;;;;;;0.32;0.20;;;;;;;7.25;82.87;101351.88;4962253;28;20110;-82
2023/03/24 01:25:10;;;;;;;2.00;0.50;;;;;;;7.10;83.21;101351.06;4960028;28;20501;-77
2023/03/24 01:27:38;;;;;;;1.00;0.80;;;;;;;7.14;85.56;101342.72;4960745;28;20252;-80
2023/03/24 01:30:09;;;;;;;0.30;0.30;;;;;;;7.16;85.46;101351.41;4954890;28;20039;-80
2023/03/24 01:32:37;;;;;;;1.13;0.52;;;;;;;7.20;86.42;101345.63;4959407;28;20055;-80
2023/03/24 01:35:08;;;;;;;1.65;0.77;;;;;;;7.18;88.02;101336.94;4960186;28;20080;-80
2023/03/24 01:37:37;;;;;;;2.05;0.70;;;;;;;7.22;90.01;101348.28;4962423;28;20353;-82
2023/03/24 01:40:08;;;;;;;3.58;0.88;;;;;;;7.25;91.56;101351.00;4962891;28;20339;-78
2023/03/24 01:42:38;;;;;;;3.05;0.68;;;;;;;7.26;89.97;101351.09;4964496;28;20592;-81
2023/03/24 01:45:39;;;;;;;0.60;0.45;;;;;;;7.31;88.30;101347.06;4967902;28;20051;-77
2023/03/24 01:48:09;;;;;;;4.28;1.13;;;;;;;7.37;90.27;101350.75;4963735;28;20047;-84
2023/03/24 01:50:42;;;;;;;2.25;0.80;;;;;;;7.34;90.28;101354.94;4961092;28;20039;-79
2023/03/24 01:53:10;;;;;;;;;;;;;;;7.34;89.32;101354.06;4969892;28;20076;-83
2023/03/24 01:55:39;;;;;;;6.55;0.93;;;;;;;7.30;87.48;101349.56;4969304;28;19930;-80
2023/03/24 01:58:10;;;;;;;4.35;0.98;;;;;;;7.20;85.95;101345.63;4962833;28;20114;-78
2023/03/24 02:00:40;;;;;;;4.93;1.20;;;;;;;7.21;87.06;101362.81;4961955;28;20047;-82
2023/03/24 02:03:16;;;;;;;3.83;0.70;;;;;;;7.13;85.12;101348.69;4972217;28;20057;-83
2023/03/24 02:05:48;;;;;;;3.90;0.80;;;;;;;7.12;84.05;101352.94;4965119;28;20039;-78
2023/03/24 02:08:18;;;;;;;;;;;;;;;7.07;79.81;101374.09;4970653;28;20138;-81
2023/03/24 02:10:48;;;;;;;3.83;0.88;;;;;;;6.99;79.88;101365.97;4969560;28;19934;-79
2023/03/24 02:13:17;;;;;;;0.40;0.30;;;;;;;6.85;80.83;101349.78;4968243;28;20538;-84
2023/03/24 02:15:55;;;;;;;4.97;0.65;;;;;;;6.89;81.38;101385.16;4966320;28;20132;-80
2023/03/24 02:18:35;;;;;;;2.20;0.57;;;;;;;6.81;82.19;101388.13;4964240;28;20065;-81
2023/03/24 02:21:44;;;;;;;4.18;0.80;;;;;;;6.77;81.57;101387.06;4971517;28;20512;-81
2023/03/24 02:24:42;;;;;;;6.80;1.17;;;;;;;6.62;81.21;101381.97;4964882;28;20130;-86
2023/03/24 02:27:32;;;;;;;2.88;1.17;;;;;;;6.59;82.11;101383.47;4967074;28;20095;-84
2023/03/24 02:30:34;;;;;;;6.68;1.52;;;;;;;6.56;83.04;101384.19;4963781;28;20051;-85
2023/03/24 02:33:39;;;;;;;7.07;0.93;;;;;;;6.48;82.26;101381.19;4961713;28;20105;-83
2023/03/24 02:36:36;;;;;;;2.42;0.88;;;;;;;6.49;82.42;101371.78;4962235;28;20039;-81
2023/03/24 02:39:38;;;;;;;2.78;0.85;;;;;;;6.48;82.39;101376.06;4966053;28;20053;-82
2023/03/24 02:42:19;;;;;;;0.25;0.20;;;;;;;6.47;82.29;101381.09;4964101;28;20548;-82
2023/03/24 02:44:58;;;;;;;1.15;0.30;;;;;;;6.43;82.16;101371.44;4969911;28;20137;-86
2023/03/24 02:47:34;;;;;;;2.35;0.40;;;;;;;6.39;82.55;101367.84;4964412;28;20504;-80
2023/03/24 02:50:16;;;;;;;1.65;0.50;;;;;;;6.35;81.96;101368.44;4967503;28;20113;-82
2023/03/24 02:52:49;;;;;;;4.22;1.17;;;;;;;6.27;82.56;101359.41;4968517;28;20047;-82
2023/03/24 02:55:24;;;;;;;0.40;0.25;;;;;;;6.27;82.44;101374.84;4964494;28;20057;-82
2023/03/24 02:58:00;;;;;;;5.30;0.70;;;;;;;6.18;82.46;101375.19;4973314;28;20074;-87
2023/03/24 03:00:33;;;;;;;2.15;0.60;;;;;;;6.08;81.16;101380.63;4971782;28;20575;-82
2023/03/24 03:03:07;;;;;;;5.05;0.55;;;;;;;6.00;82.16;101392.13;4973039;28;20065;-87
2023/03/24 03:05:40;;;;;;;0.52;0.20;;;;;;;5.82;81.69;101368.81;4969549;28;20070;-86
2023/03/24 03:08:11;;;;;;;2.50;0.65;;;;;;;5.76;81.78;101376.13;4972341;28;20066;-83
2023/03/24 03:10:45;;;;;;;1.88;0.65;;;;;;;5.77;82.63;101390.75;4972174;28;20055;-85
2023/03/24 03:13:21;;;;;;;1.45;0.82;;;;;;;5.71;82.95;101395.53;4974621;28;20054;-86
2023/03/24 03:15:53;;;;;;;2.28;0.63;;;;;;;5.69;83.04;101402.25;4969621;28;20057;-80
2023/03/24 03:18:28;;;;;;;0.63;0.40;;;;;;;5.64;83.66;101389.16;4969387;28;20051;-80
2023/03/24 03:21:03;;;;;;;2.38;0.82;;;;;;;5.58;84.13;101394.78;4970291;28;20090;-79
2023/03/24 03:23:37;;;;;;;1.08;0.70;;;;;;;5.49;84.29;101391.66;4962762;28;20489;-81
2023/03/24 03:26:15;;;;;;;2.45;0.50;;;;;;;5.45;84.53;101397.41;4963789;28;20539;-80
2023/03/24 03:28:48;;;;;;;2.67;0.70;;;;;;;5.41;85.13;101406.63;4962126;28;20534;-77
2023/03/24 03:31:23;;;;;;;1.02;0.55;;;;;;;5.35;85.84;101398.53;4969564;28;20070;-81
2023/03/24 03:33:59;;;;;;;0.88;0.60;;;;;;;5.36;86.06;101408.03;4965951;28;20496;-81
2023/03/24 03:36:31;;;;;;;1.50;0.70;;;;;;;5.33;86.47;101397.56;4957388;28;20051;-76
2023/03/24 03:39:07;;;;;;;6.13;0.52;;;;;;;5.31;86.79;101408.53;4963435;28;20508;-79
2023/03/24 03:41:39;;;;;;;0.80;0.45;;;;;;;5.25;87.53;101403.91;4968861;28;20055;-77
2023/03/24 03:44:08;;;;;;;3.20;0.85;;;;;;;5.30;87.37;101407.63;4963934;28;20473;-78
2023/03/24 03:46:38;;;;;;;1.02;0.57;;;;;;;5.30;87.64;101429.84;4961667;28;20046;-77
2023/03/24 03:49:11;;;;;;;1.75;0.50;;;;;;;5.30;88.42;101424.72;4967676;28;20194;-78
2023/03/24 03:51:40;;;;;;;0.85;0.35;;;;;;;5.28;88.21;101434.88;4956715;28;20387;-78
2023/03/24 03:54:13;;;;;;;0.80;0.30;;;;;;;5.24;88.63;101438.03;4967898;28;20515;-78
2023/03/24 03:56:45;;;;;;;0.38;0.38;;;;;;;5.18;88.25;101436.00;4964426;28;20137;-78
2023/03/24 03:59:28;;;;;;;0.77;0.45;;;;;;;5.12;88.73;101438.16;4957329;28;20153;-79
2023/03/24 04:01:58;;;;;;;0.95;0.25;;;;;;;5.16;88.64;101455.53;4959955;28;20169;-76
2023/03/24 04:04:52;;;;;;;0.63;0.20;;;;;;;5.21;88.76;101469.53;4961780;28;20133;-77
2023/03/24 04:07:28;;;;;;;0.10;0.10;;;;;;;5.24;89.20;101456.00;4968504;28;20054;-84
2023/03/24 04:10:06;;;;;;;2.83;0.52;;;;;;;5.25;89.89;101465.50;4963089;28;20074;-81
2023/03/24 04:13:04;;;;;;;2.75;0.55;;;;;;;5.22;90.24;101461.06;4967514;28;20058;-85
2023/03/24 04:15:45;;;;;;;1.17;0.10;;;;;;;5.29;90.26;101461.41;4957220;28;20158;-84
2023/03/24 04:18:41;;;;;;;2.25;0.45;;;;;;;5.32;91.42;101461.63;4971011;28;20051;-83
2023/03/24 04:21:32;;;;;;;0.82;0.40;;;;;;;5.34;90.91;101458.38;4968793;28;20051;-81
2023/03/24 04:24:14;;;;;;;5.70;0.60;;;;;;;5.32;90.67;101457.38;4958451;28;20587;-85
2023/03/24 04:26:53;;;;;;;3.83;0.20;;;;;;;5.31;90.88;101459.84;4963323;28;20620;-81
2023/03/24 04:29:35;;;;;;;1.55;0.20;;;;;;;5.30;91.44;101458.97;4967577;28;20628;-84
2023/03/24 04:32:13;;;;;;;1.25;0.30;;;;;;;5.37;92.23;101463.69;4966921;28;20047;-84
2023/03/24 04:34:49;;;;;;;2.85;0.35;;;;;;;5.39;91.97;101459.53;4968038;28;20343;-77
2023/03/24 04:37:22;;;;;;;3.72;0.77;;;;;;;5.45;92.96;101461.56;4971660;28;20061;-81
2023/03/24 04:39:57;;;;;;;3.20;0.28;;;;;;;5.35;92.09;101456.69;4965957;28;20500;-83
2023/03/24 04:42:32;;;;;;;1.05;0.50;;;;;;;5.44;93.73;101467.50;4970077;28;20051;-84
2023/03/24 04:45:05;;;;;;;2.72;0.55;;;;;;;5.46;94.46;101478.75;4964932;28;20704;-80
2023/03/24 04:47:37;;;;;;;2.17;0.65;;;;;;;5.41;95.61;101482.72;4966565;28;20105;-82
2023/03/24 04:50:08;;;;;;;5.03;0.60;;;;;;;5.38;95.54;101479.94;4964180;28;20098;-85
2023/03/24 04:52:36;;;;;;;3.20;0.43;;;;;;;5.48;96.11;101501.97;4960938;28;20055;-82
2023/03/24 04:55:19;;;;;;;0.98;0.52;;;;;;;5.48;97.19;101515.69;4968153;28;20762;-82
2023/03/24 04:57:48;;;;;;;;;;;;;;;5.52;95.94;101516.75;4966642;28;20562;-87
2023/03/24 05:00:19;;;;;;;3.55;0.90;;;;;;;5.44;96.07;101503.44;4968677;28;20029;-86
2023/03/24 05:02:51;;;;;;;0.95;0.40;;;;;;;5.54;96.25;101518.59;4970281;28;20121;-87
2023/03/24 05:05:21;;;;;;;1.10;0.55;;;;;;;5.59;96.01;101530.06;4945672;28;20513;-83
2023/03/24 05:07:50;;;;;;;1.02;0.45;;;;;;;5.53;96.15;101516.84;4966303;28;20137;-86
2023/03/24 05:10:19;;;;;;;3.25;0.50;;;;;;;5.60;96.07;101526.69;4971220;28;20168;-85
2023/03/24 05:12:48;;;;;;;3.55;0.57;;;;;;;5.56;95.70;101531.53;4969775;28;20095;-85
2023/03/24 05:15:18;;;;;;;0.80;0.30;;;;;;;5.59;95.80;101535.22;4970369;28;20389;-84
2023/03/24 05:17:47;;;;;;;0.70;0.32;;;;;;;5.59;96.12;101530.06;4966503;28;20051;-82
2023/03/24 05:20:16;;;;;;;1.08;0.35;;;;;;;5.56;96.29;101529.84;4961390;28;20050;-83
2023/03/24 05:22:45;;;;;;;0.98;0.30;;;;;;;5.52;97.00;101527.00;4965068;28;20083;-82
2023/03/24 05:25:14;;;;;;;3.92;0.50;;;;;;;5.49;97.03;101526.81;4965280;28;20070;-83
2023/03/24 05:27:44;;;;;;;1.40;0.60;;;;;;;5.44;97.07;101518.84;4963903;28;20054;-83
2023/03/24 05:30:13;;;;;;;0.60;0.30;;;;;;;5.42;97.48;101521.31;4967676;28;20493;-84
2023/03/24 05:32:44;;;;;;;1.38;0.22;;;;;;;5.43;97.26;101519.66;4966167;28;20106;-86
2023/03/24 05:35:14;;;;;;;2.30;0.47;;;;;;;5.38;97.74;101513.31;4952498;29;20502;-82
2023/03/24 05:37:42;;;;;;;1.10;0.65;;;;;;;5.38;98.57;101510.75;4948455;29;20185;-79
2023/03/24 05:40:12;;;;;;;5.65;1.33;;;;;;;5.37;99.76;101521.81;4948845;29;20043;-80
2023/03/24 05:42:41;;;;;;;2.88;1.55;;;;;;;5.37;100.00;101515.00;4944662;29;20421;-78
2023/03/24 05:45:11;;;;;;;5.60;1.73;;;;;;;5.40;100.00;101519.44;4943819;29;20047;-77
2023/03/24 05:47:39;;;;;;;4.70;0.82;;;;;;;5.41;100.00;101505.81;4943611;29;20176;-81
2023/03/24 05:50:11;;;;;;;2.00;0.63;;;;;;;5.32;100.00;101493.31;4941013;29;20481;-82
2023/03/24 05:52:40;;;;;;;2.47;0.50;;;;;;;5.42;100.00;101505.03;4940973;29;20067;-81
2023/03/24 05:55:09;;;;;;;6.50;0.88;;;;;;;5.41;100.00;101503.25;4945495;29;20057;-81
2023/03/24 05:57:38;;;;;;;1.65;0.73;;;;;;;5.37;99.81;101491.91;4941762;29;20055;-82
2023/03/24 06:00:14;;;;;;;4.90;0.45;;;;;;;5.22;100.00;101491.84;4925938;29;20386;-86
2023/03/24 06:02:42;;;;;;;7.85;1.38;;;;;;;5.24;100.00;101502.19;4947228;29;20056;-83
2023/03/24 06:05:13;;;;;;;5.25;0.40;;;;;;;5.21;100.00;101500.31;4943135;29;20065;-81
2023/03/24 06:07:43;;;;;;;2.22;0.25;;;;;;;5.18;100.00;101515.53;4944487;29;20047;-82
2023/03/24 06:10:13;;;;;;;0.88;0.55;;;;;;;5.18;100.00;101517.22;4945057;29;20110;-81
2023/03/24 06:12:42;;;;;;;0.28;0.20;;;;;;;5.21;99.89;101528.53;4943543;29;20058;-80
2023/03/24 06:15:16;;;;;;;4.40;0.57;;;;;;;5.21;100.00;101525.97;4943310;29;20243;-82
2023/03/24 06:17:46;;;;;;;5.20;0.30;;;;;;;5.23;99.97;101528.66;4947450;29;20054;-80
2023/03/24 06:20:18;;;;;;;0.77;0.17;;;;;;;5.22;100.00;101527.78;4947065;29;20058;-83
2023/03/24 06:22:47;;;;;;;0.68;0.50;;;;;;;5.16;98.97;101529.94;4948009;29;20047;-81
2023/03/24 06:25:25;;;;;;;1.83;0.43;;;;;;;5.17;99.28;101539.41;4943191;29;20446;-82
2023/03/24 06:27:53;;;;;;;4.40;0.30;;;;;;;5.17;99.58;101535.94;4948524;29;20062;-82
2023/03/24 06:30:22;;;;;;;0.10;0.10;;;;;;;5.19;100.00;101532.69;4942632;29;20512;-80
2023/03/24 06:32:51;;;;;;;0.00;0.00;;;;;;;5.14;98.91;101534.06;4948055;28;20070;-80
2023/03/24 06:35:21;;;;;;;0.00;0.00;;;;;;;5.10;99.20;101537.22;4948661;28;20074;-81
2023/03/24 06:37:53;;;;;;;1.13;0.13;;;;;;;5.07;98.81;101528.47;4948533;29;20051;-81
2023/03/24 06:40:22;;;;;;;1.40;0.40;;;;;;;5.09;98.96;101534.59;4947875;28;20062;-82
2023/03/24 06:42:51;;;;;;;3.50;0.25;;;;;;;5.03;99.34;101528.25;4946976;28;20090;-82
2023/03/24 06:45:19;;;;;;;0.17;0.10;;;;;;;5.08;99.93;101532.78;4949975;29;20058;-81
2023/03/24 06:47:48;;;;;;;0.10;0.10;;;;;;;5.13;100.00;101537.44;4943101;28;20048;-80
2023/03/24 06:50:17;;;;;;;0.10;0.00;;;;;;;5.16;100.00;101553.03;4946529;28;20111;-82
2023/03/24 06:52:47;;;;;;;3.20;0.35;;;;;;;5.18;100.00;101550.56;4947826;28;20135;-80
2023/03/24 06:55:16;;;;;;;1.27;0.68;;;;;;;5.15;100.00;101535.84;4946596;28;20102;-79
2023/03/24 06:57:45;;;;;;;0.80;0.20;;;;;;;5.20;100.00;101544.75;4941344;28;20065;-79
2023/03/24 07:00:15;;;;;;;0.88;0.45;;;;;;;5.20;100.00;101549.88;4942151;29;20549;-80
2023/03/24 07:02:44;;;;;;;2.40;0.40;;;;;;;5.17;100.00;101547.09;4947475;28;20132;-79
2023/03/24 07:05:13;;;;;;;2.25;0.15;;;;;;;5.06;100.00;101531.81;4943081;29;20078;-78
2023/03/24 07:07:42;;;;;;;1.83;0.43;;;;;;;5.02;100.00;101541.00;4941641;29;20151;-79
2023/03/24 07:10:13;;;;;;;3.30;0.40;;;;;;;4.96;100.00;101538.03;4943618;29;20477;-78
2023/03/24 07:12:42;;;;;;;5.32;0.75;;;;;;;4.79;100.00;101529.25;4947390;29;20118;-77
2023/03/24 07:15:11;;;;;;;0.57;0.10;;;;;;;4.68;100.00;101533.66;4946872;28;20078;-80
2023/03/24 07:17:42;;;;;;;0.50;0.10;;;;;;;4.59;100.00;101546.75;4945752;29;20060;-78
2023/03/24 07:20:11;;;;;;;1.83;0.47;;;;;;;4.53;100.00;101543.78;4946572;28;20052;-79
2023/03/24 07:22:40;;;;;;;0.85;0.40;;;;;;;4.45;100.00;101541.53;4944841;29;20139;-78
2023/03/24 07:25:13;;;;;;;0.52;0.20;;;;;;;4.41;100.00;101542.97;4946947;28;20055;-80
2023/03/24 07:27:48;;;;;;;0.00;0.00;;;;;;;4.40;100.00;101552.34;4946296;29;20058;-80
2023/03/24 07:30:17;;;;;;;0.65;0.10;;;;;;;4.33;100.00;101552.72;4944550;28;20536;-78
2023/03/24 07:32:47;;;;;;;1.45;0.10;;;;;;;4.30;100.00;101557.63;4943428;28;20051;-79
2023/03/24 07:35:18;;;;;;;1.00;0.13;;;;;;;4.30;100.00;101547.38;4970360;28;20126;-79
2023/03/24 07:37:49;;;;;;;0.55;0.10;;;;;;;4.24;100.00;101549.53;4968061;28;20505;-78
2023/03/24 07:40:20;;;;;;;0.40;0.20;;;;;;;4.20;100.00;101552.69;4965207;28;20066;-79
2023/03/24 07:42:49;;;;;;;0.30;0.20;;;;;;;4.10;100.00;101552.81;4964036;28;20540;-77
2023/03/24 07:45:18;;;;;;;0.22;0.20;;;;;;;4.09;100.00;101545.94;4965281;28;20051;-78
2023/03/24 07:47:47;;;;;;;1.17;0.10;;;;;;;4.07;100.00;101540.69;4968162;28;20054;-77
2023/03/24 07:50:16;;;;;;;2.22;0.45;;;;;;;4.08;100.00;101549.28;4964461;28;20614;-80
2023/03/24 07:52:48;;;;;;;0.63;0.20;;;;;;;3.95;100.00;101527.94;4965541;28;20589;-77
2023/03/24 07:55:17;;;;;;;0.20;0.20;;;;;;;3.89;100.00;101519.84;4967413;28;20425;-78
2023/03/24 07:57:50;;;;;;;0.25;0.20;;;;;;;3.96;100.00;101524.63;4966287;28;20489;-79
2023/03/24 08:00:20;;;;;;;0.38;0.22;;;;;;;3.99;100.00;101523.94;4964852;28;20050;-77
2023/03/24 08:02:50;;;;;;;0.17;0.10;;;;;;;3.90;100.00;101521.63;4966041;28;20094;-78
2023/03/24 08:05:19;;;;;;;1.55;0.30;;;;;;;3.88;100.00;101541.13;4967479;28;20444;-79
2023/03/24 08:07:52;;;;;;;1.45;0.15;;;;;;;3.90;100.00;101560.03;4965746;28;20141;-80
2023/03/24 08:10:23;;;;;;;0.40;0.20;;;;;;;3.93;100.00;101574.72;4964036;28;20106;-79
2023/03/24 08:12:53;;;;;;;0.30;0.10;;;;;;;3.82;100.00;101571.41;4965898;28;20055;-78
2023/03/24 08:15:23;;;;;;;0.10;0.10;;;;;;;3.91;100.00;101587.41;4966948;28;20039;-78
2023/03/24 08:17:52;;;;;;;0.47;0.10;;;;;;;3.88;100.00;101582.09;4967186;28;20043;-81
2023/03/24 08:20:23;;;;;;;0.93;0.10;;;;;;;3.85;100.00;101594.69;4962233;28;20151;-81
2023/03/24 08:22:53;;;;;;;0.22;0.10;;;;;;;3.79;100.00;101591.69;4961228;28;20073;-78
2023/03/24 08:25:24;;;;;;;0.75;0.38;;;;;;;3.78;100.00;101592.47;4966881;28;20532;-79
2023/03/24 08:27:54;;;;;;;0.10;0.10;;;;;;;3.77;100.00;101594.13;4962597;28;20050;-81
2023/03/24 08:30:25;;;;;;;0.15;0.10;;;;;;;3.73;100.00;101601.47;4961027;28;20046;-80
2023/03/24 08:32:55;;;;;;;0.28;0.13;;;;;;;3.67;100.00;101596.84;4965358;28;20054;-81
2023/03/24 08:35:26;;;;;;;0.20;0.10;;;;;;;3.68;100.00;101603.72;4967419;28;20059;-82
2023/03/24 08:37:54;;;;;;;0.00;0.00;;;;;;;3.62;100.00;101589.59;4966927;28;20046;-80
2023/03/24 08:40:24;;;;;;;0.20;0.10;;;;;;;3.66;100.00;101599.28;4961756;28;20061;-78
2023/03/24 08:42:56;;;;;;;1.35;0.10;;;;;;;3.66;100.00;101609.50;4962825;28;20554;-79
2023/03/24 08:45:27;;;;;;;0.15;0.00;;;;;;;3.56;100.00;101600.28;4960624;28;20054;-79
2023/03/24 08:47:57;;;;;;;0.88;0.20;;;;;;;3.54;100.00;101605.28;4959356;28;20109;-77
2023/03/24 08:50:28;;;;;;;0.00;0.00;;;;;;;3.51;100.00;101604.22;4957367;28;21565;-79
2023/03/24 08:52:59;;;;;;;0.40;0.10;;;;;;;3.49;100.00;101601.53;4957225;28;20068;-77
2023/03/24 08:55:28;;;;;;;0.63;0.05;;;;;;;3.46;100.00;101605.53;4968350;28;20560;-77
2023/03/24 08:57:58;;;;;;;1.80;0.10;;;;;;;3.36;100.00;101609.97;4962827;28;20051;-77
2023/03/24 09:00:27;;;;;;;0.05;0.00;;;;;;;3.24;100.00;101601.44;4965816;28;20083;-78
2023/03/24 09:02:57;;;;;;;0.03;0.00;;;;;;;3.18;100.00;101588.19;4960070;28;20137;-78
2023/03/24 09:05:26;;;;;;;0.55;0.05;;;;;;;3.18;100.00;101597.53;4965584;28;20051;-78
2023/03/24 09:07:55;;;;;;;0.52;0.00;;;;;;;3.19;100.00;101590.00;4963776;28;20138;-78
2023/03/24 09:10:24;;;;;;;5.25;0.30;;;;;;;3.18;100.00;101588.19;4965858;28;20481;-78
2023/03/24 09:12:53;;;;;;;0.00;0.00;;;;;;;3.20;100.00;101596.88;4962653;28;20055;-79
2023/03/24 09:15:24;;;;;;;0.40;0.10;;;;;;;3.20;100.00;101596.88;4966226;28;20046;-78
2023/03/24 09:17:52;;;;;;;2.05;0.17;;;;;;;3.22;100.00;101600.44;4969408;28;20110;-80
2023/03/24 09:20:21;;;;;;;0.20;0.20;;;;;;;3.22;100.00;101604.66;4966047;28;20050;-78
2023/03/24 09:22:50;;;;;;;0.47;0.20;;;;;;;3.22;100.00;101602.09;4970715;28;20051;-79
2023/03/24 09:25:20;;;;;;;0.00;0.00;;;;;;;3.26;100.00;101611.78;4961950;28;20452;-79
2023/03/24 09:27:49;;;;;;;0.22;0.00;;;;;;;3.28;100.00;101620.47;4960227;28;20050;-80
2023/03/24 09:30:19;;;;;;;1.48;0.00;;;;;;;3.28;100.00;101606.00;4968600;28;20415;-79
2023/03/24 09:32:49;;;;;;;0.60;0.10;;;;;;;3.31;100.00;101619.00;4971673;28;20069;-79
2023/03/24 09:35:18;;;;;;;0.10;0.10;;;;;;;3.31;100.00;101610.44;4953390;28;20053;-78
2023/03/24 09:37:46;;;;;;;0.22;0.15;;;;;;;3.32;100.00;101617.31;4950171;28;20158;-80
2023/03/24 09:40:21;;;;;;;0.30;0.15;;;;;;;3.31;100.00;101624.13;4945821;28;20054;-79
2023/03/24 09:42:55;;;;;;;0.60;0.10;;;;;;;3.38;100.00;101622.88;4944243;28;20651;-77
2023/03/24 09:45:28;;;;;;;0.10;0.08;;;;;;;3.31;100.00;101611.31;4949646;28;20742;-80
2023/03/24 09:48:03;;;;;;;0.65;0.00;;;;;;;3.41;100.00;101625.66;4938306;28;20058;-79
2023/03/24 09:50:38;;;;;;;0.30;0.00;;;;;;;3.46;100.00;101637.13;4948954;28;20048;-79
2023/03/24 09:53:11;;;;;;;0.28;0.13;;;;;;;3.43;100.00;101636.00;4946863;28;20057;-78
2023/03/24 09:55:42;;;;;;;0.10;0.10;;;;;;;3.47;100.00;101631.22;4940690;28;20067;-79
2023/03/24 09:58:14;;;;;;;1.65;0.10;;;;;;;3.49;100.00;101629.69;4945710;28;20075;-79
2023/03/24 10:00:47;;;;;;;0.10;0.05;;;;;;;3.41;100.00;101625.66;4952995;28;20047;-78
2023/03/24 10:03:23;;;;;;;0.00;0.00;;;;;;;3.45;100.00;101629.34;4950649;28;20067;-80
2023/03/24 10:05:55;;;;;;;0.40;0.10;;;;;;;3.36;100.00;101617.66;4947702;28;20051;-77
2023/03/24 10:08:30;;;;;;;0.57;0.20;;;;;;;3.43;100.00;101626.66;4951470;28;20051;-77
2023/03/24 10:11:05;;;;;;;0.00;0.00;;;;;;;3.44;100.00;101627.56;4947643;28;20055;-78
2023/03/24 10:13:48;;;;;;;0.10;0.10;;;;;;;3.46;100.00;101647.38;4946616;28;20111;-78
2023/03/24 10:16:31;;;;;;;1.13;0.10;;;;;;;3.43;100.00;101643.69;4959008;28;20054;-80
2023/03/24 10:19:09;;;;;;;0.00;0.00;;;;;;;3.46;100.00;101652.50;4947572;28;20062;-80
2023/03/24 10:21:40;;;;;;;2.42;0.28;;;;;;;3.48;100.00;101656.06;4948183;29;20043;-77
2023/03/24 10:24:19;;;;;;;0.43;0.10;;;;;;;3.38;100.00;101652.72;4952899;28;20047;-76
2023/03/24 10:26:57;;;;;;;0.00;0.00;;;;;;;3.37;100.00;101662.06;4953766;28;20055;-77
2023/03/24 10:29:30;;;;;;;0.00;0.00;;;;;;;3.34;100.00;101666.94;4952341;28;20046;-77
2023/03/24 10:32:02;;;;;;;0.10;0.00;;;;;;;3.32;100.00;101673.59;4949445;29;20098;-77
2023/03/24 10:34:34;;;;;;;0.05;0.00;;;;;;;3.19;100.00;101663.28;4964984;28;20066;-77
2023/03/24 10:37:04;;;;;;;0.70;0.10;;;;;;;3.05;100.00;101658.03;4967773;28;20050;-75
2023/03/24 10:39:33;;;;;;;0.43;0.20;;;;;;;2.84;100.00;101646.19;4967870;28;20062;-76
2023/03/24 10:42:03;;;;;;;0.15;0.08;;;;;;;2.77;100.00;101665.28;4972017;28;20046;-77
2023/03/24 10:44:32;;;;;;;0.00;0.00;;;;;;;2.67;100.00;101653.47;4966859;28;20054;-76
2023/03/24 10:47:07;;;;;;;0.10;0.10;;;;;;;2.56;100.00;101646.66;4958898;28;20077;-75
2023/03/24 10:49:37;;;;;;;0.00;0.00;;;;;;;2.46;100.00;101639.97;4971926;28;20051;-75
2023/03/24 10:52:11;;;;;;;0.93;0.35;;;;;;;2.55;100.00;101647.44;4971846;28;20042;-77
2023/03/24 10:54:56;;;;;;;1.85;0.10;;;;;;;2.57;100.00;101658.69;4965997;28;20510;-77
2023/03/24 10:57:25;;;;;;;0.00;0.00;;;;;;;2.55;100.00;101660.22;4968330;28;20140;-77
2023/03/24 10:59:58;;;;;;;0.03;0.03;;;;;;;2.56;100.00;101659.44;4968162;28;20492;-77
2023/03/24 11:02:30;;;;;;;0.28;0.10;;;;;;;2.59;100.00;101659.69;4964377;28;20051;-77
2023/03/24 11:05:04;;;;;;;1.08;0.00;;;;;;;2.62;100.00;101652.25;4965781;28;20055;-77
2023/03/24 11:07:36;;;;;;;5.30;0.10;;;;;;;2.67;100.00;101652.59;4966269;28;20126;-78
2023/03/24 11:10:07;;;;;;;;;;;;;;;2.73;100.00;101648.84;4963989;28;20058;-78
2023/03/24 11:12:38;;;;;;;0.15;0.05;;;;;;;2.72;100.00;101634.25;4970176;28;19922;-77
2023/03/24 11:15:17;;;;;;;0.20;0.10;;;;;;;2.86;100.00;101659.97;4973270;28;20712;-76
2023/03/24 11:17:47;;;;;;;0.47;0.47;;;;;;;2.89;100.00;101660.22;4970036;28;20061;-78
2023/03/24 11:20:25;;;;;;;0.20;0.10;;;;;;;2.90;100.00;101656.88;4967831;28;20049;-77
2023/03/24 11:23:02;;;;;;;0.47;0.20;;;;;;;2.97;100.00;101661.66;4958726;28;20053;-77
2023/03/24 11:25:32;;;;;;;1.08;0.40;;;;;;;3.01;100.00;101656.00;4970986;28;20055;-77
2023/03/24 11:28:03;;;;;;;5.30;0.70;;;;;;;3.05;100.00;101655.47;4969372;28;20117;-77
2023/03/24 11:30:35;;;;;;;0.52;0.30;;;;;;;3.07;100.00;101646.25;4958713;28;20144;-78
2023/03/24 11:33:05;;;;;;;0.20;0.20;;;;;;;3.11;100.00;101653.34;4965494;28;20047;-77
2023/03/24 11:35:41;;;;;;;0.82;0.32;;;;;;;3.12;100.00;101659.38;4948763;28;20138;-78
2023/03/24 11:38:09;;;;;;;4.35;0.43;;;;;;;3.08;100.00;101649.69;4958531;28;20049;-77
2023/03/24 11:40:38;;;;;;;0.28;0.15;;;;;;;3.12;100.00;101660.25;4953644;28;20348;-78
2023/03/24 11:43:21;;;;;;;1.60;0.30;;;;;;;3.20;100.00;101658.25;4952177;28;20052;-78
2023/03/24 11:45:59;;;;;;;0.38;0.20;;;;;;;3.20;100.00;101658.25;4951516;28;20134;-78
2023/03/24 11:48:34;;;;;;;0.00;0.00;;;;;;;3.16;100.00;101658.78;4949353;28;20143;-77
2023/03/24 11:51:06;;;;;;;2.00;0.10;;;;;;;3.14;100.00;101648.47;4951325;28;20062;-78
2023/03/24 11:53:43;;;;;;;1.27;0.43;;;;;;;3.21;100.00;101643.78;4948310;28;20051;-77
2023/03/24 11:56:18;;;;;;;0.28;0.17;;;;;;;3.19;100.00;101630.03;4955297;28;20094;-77